sensor_id;sensor_type;location;lat;lon;timestamp;pressure;altitude;pressure_sealevel;temperature;humidity
2711;BME280;20721;47.402;8.550;2023-02-13T00:01:30;97844;;;6.84;60.60
2711;BME280;20721;47.402;8.550;2023-02-13T00:02:30;97847;;;6.86;60.51
2711;BME280;20721;47.402;8.550;2023-02-13T00:03:30;97844;;;6.88;60.48
2711;BME280;20721;47.402;8.550;2023-02-13T00:04:30;97844;;;6.90;60.40
2711;BME280;20721;47.402;8.550;2023-02-13T00:05:30;97844;;;6.92;60.39
2711;BME280;20721;47.402;8.550;2023-02-13T00:06:30;97843;;;6.93;60.38
2711;BME280;20721;47.402;8.550;2023-02-13T00:07:30;97845;;;6.94;60.40
2711;BME280;20721;47.402;8.550;2023-02-13T00:09:30;97846;;;6.95;60.36
2711;BME280;20721;47.402;8.550;2023-02-13T00:10:30;97846;;;6.97;60.25
2711;BME280;20721;47.402;8.550;2023-02-13T00:11:30;97847;;;7.00;60.29
2711;BME280;20721;47.402;8.550;2023-02-13T00:12:30;97845;;;7.02;60.13
2711;BME280;20721;47.402;8.550;2023-02-13T00:13:31;97843;;;7.03;60.13
2711;BME280;20721;47.402;8.550;2023-02-13T00:14:33;97850;;;7.06;60.07
2711;BME280;20721;47.402;8.550;2023-02-13T00:16:30;97847;;;7.07;60.00
2711;BME280;20721;47.402;8.550;2023-02-13T00:18:33;97842;;;7.06;60.11
2711;BME280;20721;47.402;8.550;2023-02-13T00:19:30;97847;;;7.08;60.07
2711;BME280;20721;47.402;8.550;2023-02-13T00:20:30;97847;;;7.07;60.11
2711;BME280;20721;47.402;8.550;2023-02-13T00:21:30;97846;;;7.06;60.08
2711;BME280;20721;47.402;8.550;2023-02-13T00:22:33;97848;;;7.05;60.14
2711;BME280;20721;47.402;8.550;2023-02-13T00:24:30;97847;;;7.07;60.07
2711;BME280;20721;47.402;8.550;2023-02-13T00:25:30;97850;;;7.10;60.01
2711;BME280;20721;47.402;8.550;2023-02-13T00:26:30;97848;;;7.11;59.99
2711;BME280;20721;47.402;8.550;2023-02-13T00:28:30;97847;;;7.10;59.92
2711;BME280;20721;47.402;8.550;2023-02-13T00:29:30;97847;;;7.09;60.01
2711;BME280;20721;47.402;8.550;2023-02-13T00:30:34;97850;;;7.08;60.07
2711;BME280;20721;47.402;8.550;2023-02-13T00:31:31;97849;;;7.09;60.06
2711;BME280;20721;47.402;8.550;2023-02-13T00:32:30;97850;;;7.07;60.09
2711;BME280;20721;47.402;8.550;2023-02-13T00:33:30;97848;;;7.10;59.99
2711;BME280;20721;47.402;8.550;2023-02-13T00:36:31;97853;;;7.09;59.89
2711;BME280;20721;47.402;8.550;2023-02-13T00:37:30;97859;;;7.08;59.96
2711;BME280;20721;47.402;8.550;2023-02-13T00:38:30;97859;;;7.07;60.03
2711;BME280;20721;47.402;8.550;2023-02-13T00:39:30;97858;;;7.08;59.98
2711;BME280;20721;47.402;8.550;2023-02-13T00:41:30;97857;;;7.05;60.08
2711;BME280;20721;47.402;8.550;2023-02-13T00:46:30;97854;;;7.08;60.02
2711;BME280;20721;47.402;8.550;2023-02-13T00:47:30;97857;;;7.09;60.06
2711;BME280;20721;47.402;8.550;2023-02-13T00:48:31;97856;;;7.11;59.99
2711;BME280;20721;47.402;8.550;2023-02-13T00:49:30;97856;;;7.13;59.86
2711;BME280;20721;47.402;8.550;2023-02-13T00:51:31;97857;;;7.11;59.87
2711;BME280;20721;47.402;8.550;2023-02-13T00:53:32;97858;;;7.07;59.84
2711;BME280;20721;47.402;8.550;2023-02-13T00:54:30;97859;;;7.04;60.01
2711;BME280;20721;47.402;8.550;2023-02-13T00:56:31;97858;;;7.05;60.04
2711;BME280;20721;47.402;8.550;2023-02-13T00:59:30;97859;;;7.07;60.10
2711;BME280;20721;47.402;8.550;2023-02-13T01:00:30;97856;;;7.05;60.13
2711;BME280;20721;47.402;8.550;2023-02-13T01:01:30;97857;;;7.06;60.10
2711;BME280;20721;47.402;8.550;2023-02-13T01:03:32;97858;;;7.04;60.23
2711;BME280;20721;47.402;8.550;2023-02-13T01:05:31;97858;;;6.99;60.37
2711;BME280;20721;47.402;8.550;2023-02-13T01:06:30;97859;;;6.96;60.38
2711;BME280;20721;47.402;8.550;2023-02-13T01:07:35;97860;;;6.95;60.40
2711;BME280;20721;47.402;8.550;2023-02-13T01:08:30;97857;;;6.94;60.47
2711;BME280;20721;47.402;8.550;2023-02-13T01:10:30;97860;;;6.92;60.55
2711;BME280;20721;47.402;8.550;2023-02-13T01:11:30;97859;;;6.94;60.53
2711;BME280;20721;47.402;8.550;2023-02-13T01:12:30;97859;;;6.96;60.50
2711;BME280;20721;47.402;8.550;2023-02-13T01:13:30;97860;;;6.99;60.50
2711;BME280;20721;47.402;8.550;2023-02-13T01:14:30;97856;;;7.01;60.43
2711;BME280;20721;47.402;8.550;2023-02-13T01:15:31;97862;;;7.06;60.28
2711;BME280;20721;47.402;8.550;2023-02-13T01:16:30;97861;;;7.09;60.14
2711;BME280;20721;47.402;8.550;2023-02-13T01:17:30;97858;;;7.08;60.16
2711;BME280;20721;47.402;8.550;2023-02-13T01:18:30;97862;;;7.10;60.16
2711;BME280;20721;47.402;8.550;2023-02-13T01:19:30;97862;;;7.12;60.22
2711;BME280;20721;47.402;8.550;2023-02-13T01:20:30;97864;;;7.14;60.07
2711;BME280;20721;47.402;8.550;2023-02-13T01:21:30;97864;;;7.10;60.19
2711;BME280;20721;47.402;8.550;2023-02-13T01:22:30;97865;;;7.11;60.12
2711;BME280;20721;47.402;8.550;2023-02-13T01:23:31;97863;;;7.06;59.98
2711;BME280;20721;47.402;8.550;2023-02-13T01:24:32;97863;;;7.03;60.09
2711;BME280;20721;47.402;8.550;2023-02-13T01:25:30;97861;;;7.01;60.01
2711;BME280;20721;47.402;8.550;2023-02-13T01:26:30;97862;;;6.99;60.07
2711;BME280;20721;47.402;8.550;2023-02-13T01:27:31;97862;;;7.00;60.13
2711;BME280;20721;47.402;8.550;2023-02-13T01:29:30;97860;;;7.01;60.25
2711;BME280;20721;47.402;8.550;2023-02-13T01:30:30;97862;;;7.03;60.16
2711;BME280;20721;47.402;8.550;2023-02-13T01:33:30;97863;;;7.04;60.15
2711;BME280;20721;47.402;8.550;2023-02-13T01:34:31;97865;;;7.05;60.23
2711;BME280;20721;47.402;8.550;2023-02-13T01:35:30;97862;;;7.06;60.18
2711;BME280;20721;47.402;8.550;2023-02-13T01:36:30;97863;;;7.08;60.11
2711;BME280;20721;47.402;8.550;2023-02-13T01:37:30;97866;;;7.09;60.06
2711;BME280;20721;47.402;8.550;2023-02-13T01:38:30;97866;;;7.11;60.01
2711;BME280;20721;47.402;8.550;2023-02-13T01:40:31;97867;;;7.10;59.66
2711;BME280;20721;47.402;8.550;2023-02-13T01:41:30;97868;;;7.09;59.74
2711;BME280;20721;47.402;8.550;2023-02-13T01:44:52;97867;;;7.07;59.74
2711;BME280;20721;47.402;8.550;2023-02-13T01:45:30;97865;;;7.08;59.69
2711;BME280;20721;47.402;8.550;2023-02-13T01:48:32;97866;;;7.08;59.47
2711;BME280;20721;47.402;8.550;2023-02-13T01:51:31;97868;;;7.06;59.42
2711;BME280;20721;47.402;8.550;2023-02-13T01:52:30;97865;;;7.04;59.27
2711;BME280;20721;47.402;8.550;2023-02-13T01:55:30;97868;;;7.03;59.22
2711;BME280;20721;47.402;8.550;2023-02-13T01:56:39;97867;;;6.99;59.06
2711;BME280;20721;47.402;8.550;2023-02-13T01:57:30;97868;;;6.96;59.07
2711;BME280;20721;47.402;8.550;2023-02-13T01:58:31;97869;;;6.94;59.15
2711;BME280;20721;47.402;8.550;2023-02-13T01:59:32;97871;;;6.91;59.16
2711;BME280;20721;47.402;8.550;2023-02-13T02:00:30;97873;;;6.89;59.10
2711;BME280;20721;47.402;8.550;2023-02-13T02:01:30;97873;;;6.85;58.99
2711;BME280;20721;47.402;8.550;2023-02-13T02:02:31;97873;;;6.82;59.08
2711;BME280;20721;47.402;8.550;2023-02-13T02:03:32;97871;;;6.81;59.19
2711;BME280;20721;47.402;8.550;2023-02-13T02:05:31;97871;;;6.79;59.00
2711;BME280;20721;47.402;8.550;2023-02-13T02:06:33;97874;;;6.78;59.08
2711;BME280;20721;47.402;8.550;2023-02-13T02:07:30;97873;;;6.75;59.16
2711;BME280;20721;47.402;8.550;2023-02-13T02:08:30;97870;;;6.73;59.20
2711;BME280;20721;47.402;8.550;2023-02-13T02:09:31;97873;;;6.72;59.21
2711;BME280;20721;47.402;8.550;2023-02-13T02:11:33;97875;;;6.71;59.29
2711;BME280;20721;47.402;8.550;2023-02-13T02:12:33;97872;;;6.70;59.31
2711;BME280;20721;47.402;8.550;2023-02-13T02:13:30;97876;;;6.71;59.32
2711;BME280;20721;47.402;8.550;2023-02-13T02:14:30;97873;;;6.72;59.33
2711;BME280;20721;47.402;8.550;2023-02-13T02:16:31;97871;;;6.73;59.12
2711;BME280;20721;47.402;8.550;2023-02-13T02:18:31;97872;;;6.70;58.73
2711;BME280;20721;47.402;8.550;2023-02-13T02:23:36;97874;;;6.63;58.98
2711;BME280;20721;47.402;8.550;2023-02-13T02:25:40;97875;;;6.59;58.80
2711;BME280;20721;47.402;8.550;2023-02-13T02:26:37;97873;;;6.58;58.80
2711;BME280;20721;47.402;8.550;2023-02-13T02:28:42;97873;;;6.58;58.90
2711;BME280;20721;47.402;8.550;2023-02-13T02:33:33;97875;;;6.53;58.45
2711;BME280;20721;47.402;8.550;2023-02-13T02:34:35;97875;;;6.50;58.44
2711;BME280;20721;47.402;8.550;2023-02-13T02:40:34;97877;;;6.42;58.75
2711;BME280;20721;47.402;8.550;2023-02-13T02:42:34;97872;;;6.43;58.61
2711;BME280;20721;47.402;8.550;2023-02-13T02:44:36;97873;;;6.40;58.50
2711;BME280;20721;47.402;8.550;2023-02-13T02:45:34;97875;;;6.39;58.46
2711;BME280;20721;47.402;8.550;2023-02-13T02:46:39;97875;;;6.37;58.47
2711;BME280;20721;47.402;8.550;2023-02-13T02:47:43;97877;;;6.35;58.33
2711;BME280;20721;47.402;8.550;2023-02-13T02:48:49;97875;;;6.33;58.36
2711;BME280;20721;47.402;8.550;2023-02-13T02:49:41;97873;;;6.30;58.47
2711;BME280;20721;47.402;8.550;2023-02-13T02:50:33;97873;;;6.29;58.56
2711;BME280;20721;47.402;8.550;2023-02-13T02:51:40;97877;;;6.26;58.62
2711;BME280;20721;47.402;8.550;2023-02-13T02:54:44;97885;;;6.21;58.79
2711;BME280;20721;47.402;8.550;2023-02-13T02:58:42;97886;;;6.20;58.67
2711;BME280;20721;47.402;8.550;2023-02-13T02:59:40;97881;;;6.18;58.62
2711;BME280;20721;47.402;8.550;2023-02-13T03:00:41;97886;;;6.16;58.67
2711;BME280;20721;47.402;8.550;2023-02-13T03:01:41;97885;;;6.14;58.72
2711;BME280;20721;47.402;8.550;2023-02-13T03:02:40;97884;;;6.13;58.82
2711;BME280;20721;47.402;8.550;2023-02-13T03:04:50;97884;;;6.11;58.83
2711;BME280;20721;47.402;8.550;2023-02-13T03:05:43;97884;;;6.12;58.82
2711;BME280;20721;47.402;8.550;2023-02-13T03:07:30;97883;;;6.13;58.84
2711;BME280;20721;47.402;8.550;2023-02-13T03:08:41;97883;;;6.14;58.85
2711;BME280;20721;47.402;8.550;2023-02-13T03:10:40;97887;;;6.15;58.67
2711;BME280;20721;47.402;8.550;2023-02-13T03:11:40;97885;;;6.17;58.62
2711;BME280;20721;47.402;8.550;2023-02-13T03:12:43;97883;;;6.12;58.64
2711;BME280;20721;47.402;8.550;2023-02-13T03:13:35;97886;;;6.07;58.79
2711;BME280;20721;47.402;8.550;2023-02-13T03:14:30;97889;;;6.05;58.98
2711;BME280;20721;47.402;8.550;2023-02-13T03:15:30;97891;;;6.02;59.11
2711;BME280;20721;47.402;8.550;2023-02-13T03:16:41;97887;;;6.04;59.04
2711;BME280;20721;47.402;8.550;2023-02-13T03:17:41;97891;;;6.03;59.03
2711;BME280;20721;47.402;8.550;2023-02-13T03:18:42;97889;;;6.05;59.01
2711;BME280;20721;47.402;8.550;2023-02-13T03:20:44;97889;;;6.05;59.06
2711;BME280;20721;47.402;8.550;2023-02-13T03:25:35;97889;;;6.07;59.11
2711;BME280;20721;47.402;8.550;2023-02-13T03:26:43;97892;;;6.08;59.18
2711;BME280;20721;47.402;8.550;2023-02-13T03:27:49;97892;;;6.07;59.19
2711;BME280;20721;47.402;8.550;2023-02-13T03:28:45;97889;;;6.08;59.20
2711;BME280;20721;47.402;8.550;2023-02-13T03:29:45;97891;;;6.10;59.15
2711;BME280;20721;47.402;8.550;2023-02-13T03:34:42;97895;;;6.10;59.25
2711;BME280;20721;47.402;8.550;2023-02-13T03:37:41;97893;;;6.11;59.19
2711;BME280;20721;47.402;8.550;2023-02-13T03:38:37;97896;;;6.10;59.25
2711;BME280;20721;47.402;8.550;2023-02-13T03:40:48;97897;;;6.11;59.31
2711;BME280;20721;47.402;8.550;2023-02-13T03:42:34;97895;;;6.06;59.36
2711;BME280;20721;47.402;8.550;2023-02-13T03:43:35;97896;;;6.05;59.40
2711;BME280;20721;47.402;8.550;2023-02-13T03:44:33;97899;;;6.02;59.49
2711;BME280;20721;47.402;8.550;2023-02-13T03:45:42;97897;;;6.00;59.61
2711;BME280;20721;47.402;8.550;2023-02-13T03:46:32;97900;;;6.01;59.70
2711;BME280;20721;47.402;8.550;2023-02-13T03:47:31;97899;;;6.04;59.72
2711;BME280;20721;47.402;8.550;2023-02-13T03:48:41;97902;;;6.06;59.61
2711;BME280;20721;47.402;8.550;2023-02-13T03:50:31;97908;;;6.07;59.64
2711;BME280;20721;47.402;8.550;2023-02-13T03:51:32;97913;;;6.09;59.70
2711;BME280;20721;47.402;8.550;2023-02-13T03:52:32;97912;;;6.11;59.72
2711;BME280;20721;47.402;8.550;2023-02-13T03:53:31;97911;;;6.14;59.62
2711;BME280;20721;47.402;8.550;2023-02-13T03:54:42;97910;;;6.17;59.61
2711;BME280;20721;47.402;8.550;2023-02-13T03:55:41;97914;;;6.18;59.60
2711;BME280;20721;47.402;8.550;2023-02-13T03:56:40;97915;;;6.20;59.53
2711;BME280;20721;47.402;8.550;2023-02-13T03:57:41;97919;;;6.22;59.54
2711;BME280;20721;47.402;8.550;2023-02-13T03:58:42;97918;;;6.25;59.43
2711;BME280;20721;47.402;8.550;2023-02-13T04:00:34;97922;;;6.24;59.46
2711;BME280;20721;47.402;8.550;2023-02-13T04:01:31;97922;;;6.23;59.40
2711;BME280;20721;47.402;8.550;2023-02-13T04:02:32;97921;;;6.21;59.51
2711;BME280;20721;47.402;8.550;2023-02-13T04:03:34;97919;;;6.20;59.64
2711;BME280;20721;47.402;8.550;2023-02-13T04:04:34;97922;;;6.19;59.57
2711;BME280;20721;47.402;8.550;2023-02-13T04:05:31;97922;;;6.18;59.74
2711;BME280;20721;47.402;8.550;2023-02-13T04:07:32;97922;;;6.19;59.79
2711;BME280;20721;47.402;8.550;2023-02-13T04:08:31;97920;;;6.20;59.82
2711;BME280;20721;47.402;8.550;2023-02-13T04:09:32;97922;;;6.22;59.83
2711;BME280;20721;47.402;8.550;2023-02-13T04:10:31;97922;;;6.23;59.75
2711;BME280;20721;47.402;8.550;2023-02-13T04:13:32;97923;;;6.24;59.76
2711;BME280;20721;47.402;8.550;2023-02-13T04:15:48;97927;;;6.26;59.70
2711;BME280;20721;47.402;8.550;2023-02-13T04:16:32;97926;;;6.28;59.79
2711;BME280;20721;47.402;8.550;2023-02-13T04:17:32;97926;;;6.30;59.71
2711;BME280;20721;47.402;8.550;2023-02-13T04:18:31;97929;;;6.31;59.64
2711;BME280;20721;47.402;8.550;2023-02-13T04:19:31;97929;;;6.33;59.60
2711;BME280;20721;47.402;8.550;2023-02-13T04:20:31;97925;;;6.35;59.60
2711;BME280;20721;47.402;8.550;2023-02-13T04:21:31;97926;;;6.38;59.52
2711;BME280;20721;47.402;8.550;2023-02-13T04:22:31;97926;;;6.40;59.36
2711;BME280;20721;47.402;8.550;2023-02-13T04:25:31;97928;;;6.38;59.33
2711;BME280;20721;47.402;8.550;2023-02-13T04:26:35;97922;;;6.37;59.29
2711;BME280;20721;47.402;8.550;2023-02-13T04:27:31;97925;;;6.36;59.38
2711;BME280;20721;47.402;8.550;2023-02-13T04:28:31;97926;;;6.34;59.35
2711;BME280;20721;47.402;8.550;2023-02-13T04:29:31;97923;;;6.30;59.42
2711;BME280;20721;47.402;8.550;2023-02-13T04:32:31;97926;;;6.28;59.56
2711;BME280;20721;47.402;8.550;2023-02-13T04:34:31;97922;;;6.29;59.67
2711;BME280;20721;47.402;8.550;2023-02-13T04:35:31;97927;;;6.34;59.53
2711;BME280;20721;47.402;8.550;2023-02-13T04:36:31;97926;;;6.36;59.48
2711;BME280;20721;47.402;8.550;2023-02-13T04:38:31;97924;;;6.35;59.43
2711;BME280;20721;47.402;8.550;2023-02-13T04:39:31;97923;;;6.33;59.50
2711;BME280;20721;47.402;8.550;2023-02-13T04:42:31;97920;;;6.32;59.49
2711;BME280;20721;47.402;8.550;2023-02-13T04:43:31;97924;;;6.33;59.55
2711;BME280;20721;47.402;8.550;2023-02-13T04:44:31;97918;;;6.32;59.66
2711;BME280;20721;47.402;8.550;2023-02-13T04:47:31;97924;;;6.31;59.66
2711;BME280;20721;47.402;8.550;2023-02-13T04:49:31;97927;;;6.32;59.62
2711;BME280;20721;47.402;8.550;2023-02-13T04:50:31;97923;;;6.33;59.61
2711;BME280;20721;47.402;8.550;2023-02-13T04:51:31;97923;;;6.36;59.49
2711;BME280;20721;47.402;8.550;2023-02-13T04:52:31;97925;;;6.37;59.51
2711;BME280;20721;47.402;8.550;2023-02-13T04:53:31;97925;;;6.39;59.67
2711;BME280;20721;47.402;8.550;2023-02-13T04:54:31;97929;;;6.37;59.80
2711;BME280;20721;47.402;8.550;2023-02-13T04:55:31;97929;;;6.36;59.92
2711;BME280;20721;47.402;8.550;2023-02-13T04:56:31;97929;;;6.25;60.24
2711;BME280;20721;47.402;8.550;2023-02-13T04:57:31;97930;;;6.09;60.70
2711;BME280;20721;47.402;8.550;2023-02-13T04:58:31;97927;;;5.99;61.03
2711;BME280;20721;47.402;8.550;2023-02-13T04:59:31;97926;;;5.98;61.26
2711;BME280;20721;47.402;8.550;2023-02-13T05:00:31;97925;;;6.00;61.27
2711;BME280;20721;47.402;8.550;2023-02-13T05:01:31;97926;;;6.06;61.21
2711;BME280;20721;47.402;8.550;2023-02-13T05:02:31;97926;;;6.08;61.18
2711;BME280;20721;47.402;8.550;2023-02-13T05:03:31;97925;;;6.13;61.05
2711;BME280;20721;47.402;8.550;2023-02-13T05:04:31;97930;;;6.17;60.88
2711;BME280;20721;47.402;8.550;2023-02-13T05:05:31;97928;;;6.19;60.78
2711;BME280;20721;47.402;8.550;2023-02-13T05:06:31;97926;;;6.18;60.69
2711;BME280;20721;47.402;8.550;2023-02-13T05:07:31;97930;;;6.15;60.71
2711;BME280;20721;47.402;8.550;2023-02-13T05:08:31;97934;;;6.06;61.08
2711;BME280;20721;47.402;8.550;2023-02-13T05:09:31;97928;;;5.88;61.55
2711;BME280;20721;47.402;8.550;2023-02-13T05:10:31;97930;;;5.78;61.99
2711;BME280;20721;47.402;8.550;2023-02-13T05:11:31;97930;;;5.74;62.19
2711;BME280;20721;47.402;8.550;2023-02-13T05:12:31;97934;;;5.69;62.39
2711;BME280;20721;47.402;8.550;2023-02-13T05:13:31;97928;;;5.68;62.37
2711;BME280;20721;47.402;8.550;2023-02-13T05:14:31;97932;;;5.73;62.35
2711;BME280;20721;47.402;8.550;2023-02-13T05:15:31;97932;;;5.80;62.30
2711;BME280;20721;47.402;8.550;2023-02-13T05:16:31;97935;;;5.87;62.10
2711;BME280;20721;47.402;8.550;2023-02-13T05:17:31;97935;;;5.92;61.96
2711;BME280;20721;47.402;8.550;2023-02-13T05:18:31;97935;;;5.98;61.79
2711;BME280;20721;47.402;8.550;2023-02-13T05:19:31;97935;;;6.03;61.59
2711;BME280;20721;47.402;8.550;2023-02-13T05:20:31;97933;;;6.10;61.18
2711;BME280;20721;47.402;8.550;2023-02-13T05:21:41;97934;;;6.13;61.01
2711;BME280;20721;47.402;8.550;2023-02-13T05:22:42;97933;;;6.14;60.87
2711;BME280;20721;47.402;8.550;2023-02-13T05:23:33;97933;;;6.16;60.83
2711;BME280;20721;47.402;8.550;2023-02-13T05:24:31;97934;;;6.15;60.83
2711;BME280;20721;47.402;8.550;2023-02-13T05:25:31;97931;;;6.16;60.89
2711;BME280;20721;47.402;8.550;2023-02-13T05:26:31;97935;;;6.18;60.79
2711;BME280;20721;47.402;8.550;2023-02-13T05:27:31;97935;;;6.19;60.63
2711;BME280;20721;47.402;8.550;2023-02-13T05:28:41;97934;;;6.18;60.76
2711;BME280;20721;47.402;8.550;2023-02-13T05:29:31;97932;;;6.17;60.72
2711;BME280;20721;47.402;8.550;2023-02-13T05:30:31;97932;;;6.19;60.58
2711;BME280;20721;47.402;8.550;2023-02-13T05:31:31;97932;;;6.12;60.70
2711;BME280;20721;47.402;8.550;2023-02-13T05:32:31;97938;;;6.10;60.99
2711;BME280;20721;47.402;8.550;2023-02-13T05:33:31;97937;;;6.12;60.92
2711;BME280;20721;47.402;8.550;2023-02-13T05:34:31;97938;;;6.16;60.86
2711;BME280;20721;47.402;8.550;2023-02-13T05:36:31;97937;;;6.19;60.83
2711;BME280;20721;47.402;8.550;2023-02-13T05:37:31;97937;;;6.20;60.75
2711;BME280;20721;47.402;8.550;2023-02-13T05:38:31;97939;;;6.21;60.72
2711;BME280;20721;47.402;8.550;2023-02-13T05:39:31;97936;;;6.20;60.73
2711;BME280;20721;47.402;8.550;2023-02-13T05:41:31;97939;;;6.21;60.80
2711;BME280;20721;47.402;8.550;2023-02-13T05:42:31;97937;;;6.23;60.67
2711;BME280;20721;47.402;8.550;2023-02-13T05:43:31;97937;;;6.24;60.65
2711;BME280;20721;47.402;8.550;2023-02-13T05:44:31;97938;;;6.25;60.59
2711;BME280;20721;47.402;8.550;2023-02-13T05:45:31;97934;;;6.23;60.66
2711;BME280;20721;47.402;8.550;2023-02-13T05:46:31;97938;;;6.19;60.76
2711;BME280;20721;47.402;8.550;2023-02-13T05:47:31;97931;;;6.06;61.06
2711;BME280;20721;47.402;8.550;2023-02-13T05:48:31;97935;;;6.03;61.22
2711;BME280;20721;47.402;8.550;2023-02-13T05:50:31;97939;;;6.02;61.33
2711;BME280;20721;47.402;8.550;2023-02-13T05:51:31;97937;;;6.00;61.43
2711;BME280;20721;47.402;8.550;2023-02-13T05:52:31;97938;;;5.89;61.72
2711;BME280;20721;47.402;8.550;2023-02-13T05:53:34;97941;;;5.81;62.03
2711;BME280;20721;47.402;8.550;2023-02-13T05:54:31;97938;;;5.79;62.10
2711;BME280;20721;47.402;8.550;2023-02-13T05:55:31;97939;;;5.77;62.11
2711;BME280;20721;47.402;8.550;2023-02-13T05:56:31;97942;;;5.72;62.29
2711;BME280;20721;47.402;8.550;2023-02-13T05:58:31;97940;;;5.78;62.23
2711;BME280;20721;47.402;8.550;2023-02-13T05:59:31;97940;;;5.83;62.09
2711;BME280;20721;47.402;8.550;2023-02-13T06:00:33;97941;;;5.86;62.07
2711;BME280;20721;47.402;8.550;2023-02-13T06:01:31;97938;;;5.88;61.88
2711;BME280;20721;47.402;8.550;2023-02-13T06:04:31;97940;;;5.89;61.91
2711;BME280;20721;47.402;8.550;2023-02-13T06:05:31;97942;;;5.85;61.91
2711;BME280;20721;47.402;8.550;2023-02-13T06:06:31;97940;;;5.80;62.13
2711;BME280;20721;47.402;8.550;2023-02-13T06:07:31;97943;;;5.82;62.11
2711;BME280;20721;47.402;8.550;2023-02-13T06:08:31;97942;;;5.88;61.96
2711;BME280;20721;47.402;8.550;2023-02-13T06:09:31;97943;;;5.91;61.89
2711;BME280;20721;47.402;8.550;2023-02-13T06:10:31;97945;;;5.94;61.79
2711;BME280;20721;47.402;8.550;2023-02-13T06:11:31;97945;;;5.96;61.70
2711;BME280;20721;47.402;8.550;2023-02-13T06:12:31;97949;;;5.98;61.72
2711;BME280;20721;47.402;8.550;2023-02-13T06:13:31;97948;;;5.96;61.59
2711;BME280;20721;47.402;8.550;2023-02-13T06:14:31;97944;;;5.95;61.67
2711;BME280;20721;47.402;8.550;2023-02-13T06:15:31;97950;;;5.94;61.64
2711;BME280;20721;47.402;8.550;2023-02-13T06:17:31;97953;;;5.93;61.67
2711;BME280;20721;47.402;8.550;2023-02-13T06:18:31;97954;;;5.98;61.65
2711;BME280;20721;47.402;8.550;2023-02-13T06:19:31;97951;;;5.99;61.46
2711;BME280;20721;47.402;8.550;2023-02-13T06:20:31;97951;;;5.98;61.42
2711;BME280;20721;47.402;8.550;2023-02-13T06:21:32;97950;;;5.94;61.50
2711;BME280;20721;47.402;8.550;2023-02-13T06:22:31;97950;;;5.95;61.50
2711;BME280;20721;47.402;8.550;2023-02-13T06:23:31;97951;;;5.93;61.49
2711;BME280;20721;47.402;8.550;2023-02-13T06:24:31;97953;;;5.92;61.59
2711;BME280;20721;47.402;8.550;2023-02-13T06:25:32;97954;;;5.94;61.60
2711;BME280;20721;47.402;8.550;2023-02-13T06:26:31;97954;;;5.98;61.56
2711;BME280;20721;47.402;8.550;2023-02-13T06:27:31;97953;;;6.01;61.39
2711;BME280;20721;47.402;8.550;2023-02-13T06:28:31;97958;;;6.03;61.24
2711;BME280;20721;47.402;8.550;2023-02-13T06:29:31;97957;;;6.06;61.26
2711;BME280;20721;47.402;8.550;2023-02-13T06:30:32;97959;;;6.09;61.17
2711;BME280;20721;47.402;8.550;2023-02-13T06:31:31;97962;;;6.12;61.10
2711;BME280;20721;47.402;8.550;2023-02-13T06:32:31;97962;;;6.10;60.92
2711;BME280;20721;47.402;8.550;2023-02-13T06:33:31;97963;;;6.12;60.96
2711;BME280;20721;47.402;8.550;2023-02-13T06:34:31;97962;;;6.17;60.92
2711;BME280;20721;47.402;8.550;2023-02-13T06:35:31;97962;;;6.22;60.88
2711;BME280;20721;47.402;8.550;2023-02-13T06:36:31;97967;;;6.27;60.67
2711;BME280;20721;47.402;8.550;2023-02-13T06:37:34;97959;;;6.31;60.53
2711;BME280;20721;47.402;8.550;2023-02-13T06:38:31;97966;;;6.33;60.46
2711;BME280;20721;47.402;8.550;2023-02-13T06:39:31;97963;;;6.34;60.40
2711;BME280;20721;47.402;8.550;2023-02-13T06:40:31;97962;;;6.35;60.34
2711;BME280;20721;47.402;8.550;2023-02-13T06:41:31;97966;;;6.39;60.30
2711;BME280;20721;47.402;8.550;2023-02-13T06:42:31;97967;;;6.43;60.18
2711;BME280;20721;47.402;8.550;2023-02-13T06:43:31;97961;;;6.47;59.97
2711;BME280;20721;47.402;8.550;2023-02-13T06:44:31;97967;;;6.49;59.91
2711;BME280;20721;47.402;8.550;2023-02-13T06:45:31;97970;;;6.50;59.75
2711;BME280;20721;47.402;8.550;2023-02-13T06:46:31;97968;;;6.51;59.68
2711;BME280;20721;47.402;8.550;2023-02-13T06:47:31;97970;;;6.47;59.66
2711;BME280;20721;47.402;8.550;2023-02-13T06:48:31;97972;;;6.46;59.75
2711;BME280;20721;47.402;8.550;2023-02-13T06:49:31;97972;;;6.37;59.70
2711;BME280;20721;47.402;8.550;2023-02-13T06:50:31;97975;;;6.29;60.02
2711;BME280;20721;47.402;8.550;2023-02-13T06:51:31;97976;;;6.27;60.17
2711;BME280;20721;47.402;8.550;2023-02-13T06:52:31;97981;;;6.29;60.10
2711;BME280;20721;47.402;8.550;2023-02-13T06:53:31;97979;;;6.26;60.09
2711;BME280;20721;47.402;8.550;2023-02-13T06:54:41;97983;;;6.22;60.12
2711;BME280;20721;47.402;8.550;2023-02-13T06:55:31;97981;;;6.19;60.38
2711;BME280;20721;47.402;8.550;2023-02-13T06:56:31;97981;;;6.22;60.38
2711;BME280;20721;47.402;8.550;2023-02-13T06:57:32;97981;;;6.21;60.34
2711;BME280;20721;47.402;8.550;2023-02-13T06:59:31;97983;;;6.24;61.13
2711;BME280;20721;47.402;8.550;2023-02-13T07:00:31;97981;;;6.28;61.21
2711;BME280;20721;47.402;8.550;2023-02-13T07:01:31;97982;;;6.34;61.30
2711;BME280;20721;47.402;8.550;2023-02-13T07:02:31;97983;;;6.41;60.69
2711;BME280;20721;47.402;8.550;2023-02-13T07:03:31;97986;;;6.45;60.60
2711;BME280;20721;47.402;8.550;2023-02-13T07:04:31;97984;;;6.50;60.38
2711;BME280;20721;47.402;8.550;2023-02-13T07:05:31;97982;;;6.48;59.72
2711;BME280;20721;47.402;8.550;2023-02-13T07:06:33;97985;;;6.47;59.73
2711;BME280;20721;47.402;8.550;2023-02-13T07:07:32;97985;;;6.46;59.74
2711;BME280;20721;47.402;8.550;2023-02-13T07:09:31;97986;;;6.41;59.63
2711;BME280;20721;47.402;8.550;2023-02-13T07:10:31;97985;;;6.38;59.80
2711;BME280;20721;47.402;8.550;2023-02-13T07:11:31;97987;;;6.33;59.72
2711;BME280;20721;47.402;8.550;2023-02-13T07:12:31;97986;;;6.29;59.73
2711;BME280;20721;47.402;8.550;2023-02-13T07:13:31;97984;;;6.24;59.92
2711;BME280;20721;47.402;8.550;2023-02-13T07:14:34;97981;;;6.21;60.10
2711;BME280;20721;47.402;8.550;2023-02-13T07:15:32;97985;;;6.20;60.19
2711;BME280;20721;47.402;8.550;2023-02-13T07:16:31;97983;;;6.19;60.35
2711;BME280;20721;47.402;8.550;2023-02-13T07:18:31;97985;;;6.23;60.34
2711;BME280;20721;47.402;8.550;2023-02-13T07:19:31;97984;;;6.25;60.23
2711;BME280;20721;47.402;8.550;2023-02-13T07:20:31;97983;;;6.23;60.14
2711;BME280;20721;47.402;8.550;2023-02-13T07:21:31;97980;;;6.21;60.18
2711;BME280;20721;47.402;8.550;2023-02-13T07:23:31;97979;;;6.20;60.35